Caddo, Texas
Current Conditions -  °F | °C
As of 12:35 PM on Thursday 23 Oct 2014 (Local Time) from KBKD Reporting Station
Overcast Overcast  
Wind Chill: 77°   Ceiling: 6500
Heat Index: 79°   Visibility: 7mi
Dew Point: 58°   Wind: 5mph
Humidity: 51%   Direction: 220°SW
Pressure: 30.13"   Gusts: NA
Location:  32.72°N, 98.67°W
Report Text: KBKD 231735Z AUTO 22004KT 7SM OVC065 25/14 A3013 RMK AO2 T02500143
Loading
Personal Weather Stations






























Interactive Weather Map
Tropical Storm Tracking
New forecast layout! Learn more

10-Day Weather Forecast

Advertisements
Track Severe Weather on mobile